createdAt,value
2019-04-01T00:01:44.099Z,4.10
2019-04-01T00:04:12.672Z,4.10
2019-04-01T00:06:41.198Z,4.10
2019-04-01T00:09:09.769Z,4.10
2019-04-01T00:11:43.388Z,4.10
2019-04-01T00:14:11.925Z,4.00
2019-04-01T00:16:40.396Z,4.00
2019-04-01T00:19:08.953Z,4.00
2019-04-01T00:21:37.520Z,3.90
2019-04-01T00:24:06.136Z,3.90
2019-04-01T00:26:34.684Z,3.80
2019-04-01T00:29:03.195Z,3.80
2019-04-01T00:31:31.821Z,3.80
2019-04-01T00:34:00.327Z,3.80
2019-04-01T00:36:28.835Z,3.70
2019-04-01T00:38:57.372Z,3.70
2019-04-01T00:41:26.005Z,3.70
2019-04-01T00:43:56.887Z,3.60
2019-04-01T00:46:25.443Z,3.60
2019-04-01T00:48:54.075Z,3.60
2019-04-01T00:51:23.864Z,3.50
2019-04-01T00:53:52.510Z,3.50
2019-04-01T00:56:21.109Z,3.40
2019-04-01T00:58:49.620Z,3.40
2019-04-01T01:01:18.216Z,3.40
2019-04-01T01:03:46.789Z,3.40
2019-04-01T01:06:15.501Z,3.40
2019-04-01T01:08:44.998Z,3.30
2019-04-01T01:11:13.668Z,3.20
2019-04-01T01:13:42.210Z,3.20
2019-04-01T01:16:10.707Z,3.20
2019-04-01T01:18:39.258Z,3.20
2019-04-01T01:21:08.044Z,3.20
2019-04-01T01:23:38.063Z,3.20
2019-04-01T01:26:06.595Z,3.10
2019-04-01T01:28:35.248Z,3.10
2019-04-01T01:31:03.978Z,3.10
2019-04-01T01:33:32.435Z,3.10
2019-04-01T01:36:00.984Z,3.00
2019-04-01T01:38:29.447Z,3.00
2019-04-01T01:40:58.136Z,3.00
2019-04-01T01:43:26.679Z,3.00
2019-04-01T01:45:55.145Z,3.00
2019-04-01T01:48:23.599Z,2.90
2019-04-01T01:50:52.090Z,2.90
2019-04-01T01:53:20.620Z,2.90
2019-04-01T01:55:49.073Z,2.90
2019-04-01T01:58:17.576Z,2.80
2019-04-01T02:00:46.039Z,2.80
2019-04-01T02:03:14.500Z,2.80
2019-04-01T02:05:45.008Z,2.80
2019-04-01T02:08:13.483Z,2.70
2019-04-01T02:10:41.998Z,2.70
2019-04-01T02:13:10.573Z,2.60
2019-04-01T02:15:39.029Z,2.60
2019-04-01T02:18:07.474Z,2.60
2019-04-01T02:20:36.189Z,2.60
2019-04-01T02:23:04.772Z,2.60
2019-04-01T02:25:33.228Z,2.50
2019-04-01T02:28:01.725Z,2.50
2019-04-01T02:30:30.243Z,2.50
2019-04-01T02:32:58.696Z,2.50
2019-04-01T02:35:27.219Z,2.40
2019-04-01T02:37:55.697Z,2.40
2019-04-01T02:40:25.462Z,2.30
2019-04-01T02:42:55.226Z,2.30
2019-04-01T02:45:23.743Z,2.30
2019-04-01T02:47:52.218Z,2.20
2019-04-01T02:50:20.679Z,2.20
2019-04-01T02:52:49.136Z,2.20
2019-04-01T02:55:17.733Z,2.20
2019-04-01T02:57:46.205Z,2.20
2019-04-01T03:00:15.296Z,2.20
2019-04-01T03:02:43.788Z,2.30
2019-04-01T03:05:13.613Z,2.30
2019-04-01T03:07:42.154Z,2.30
2019-04-01T03:10:10.869Z,2.30
2019-04-01T03:12:39.328Z,2.30
2019-04-01T03:15:08.317Z,2.30
2019-04-01T03:17:36.955Z,2.20
2019-04-01T03:20:06.930Z,2.10
2019-04-01T03:22:35.449Z,2.10
2019-04-01T03:25:05.469Z,2.00
2019-04-01T03:27:33.980Z,2.00
2019-04-01T03:30:02.445Z,1.90
2019-04-01T03:32:31.060Z,1.90
2019-04-01T03:34:59.526Z,1.80
2019-04-01T03:37:28.078Z,1.80
2019-04-01T03:39:56.536Z,1.70
2019-04-01T03:42:25.161Z,1.70
2019-04-01T03:44:55.237Z,1.70
2019-04-01T03:47:23.988Z,1.70
2019-04-01T03:49:52.540Z,1.70
2019-04-01T03:52:21.156Z,1.70
2019-04-01T03:54:49.641Z,1.70
2019-04-01T03:57:18.224Z,1.70
2019-04-01T03:59:46.750Z,1.70
2019-04-01T04:02:15.191Z,1.70
2019-04-01T04:04:43.674Z,1.70
2019-04-01T04:07:12.129Z,1.70
2019-04-01T04:09:40.666Z,1.80
2019-04-01T04:12:09.352Z,1.80
2019-04-01T04:14:37.799Z,1.80
2019-04-01T04:17:06.430Z,1.80
2019-04-01T04:19:34.982Z,1.80
2019-04-01T04:22:03.529Z,1.80
2019-04-01T04:24:32.739Z,1.70
2019-04-01T04:27:01.303Z,1.70
2019-04-01T04:29:29.827Z,1.70
2019-04-01T04:31:58.297Z,1.60
2019-04-01T04:34:26.974Z,1.60
2019-04-01T04:36:55.487Z,1.60
2019-04-01T04:39:23.946Z,1.60
2019-04-01T04:41:52.533Z,1.50
2019-04-01T04:44:20.995Z,1.50
2019-04-01T04:46:51.188Z,1.50
2019-04-01T04:49:19.667Z,1.40
2019-04-01T04:51:48.173Z,1.50
2019-04-01T04:54:18.226Z,1.50
2019-04-01T04:56:46.704Z,1.50
2019-04-01T04:59:15.149Z,1.50
2019-04-01T05:01:43.609Z,1.50
2019-04-01T05:04:12.156Z,1.50
2019-04-01T05:06:40.612Z,1.50
2019-04-01T05:09:09.056Z,1.50
2019-04-01T05:11:37.561Z,1.50
2019-04-01T05:14:05.999Z,1.50
2019-04-01T05:16:34.469Z,1.50
2019-04-01T05:19:03.047Z,1.50
2019-04-01T05:21:33.408Z,1.40
2019-04-01T05:24:02.496Z,1.40
2019-04-01T05:26:33.526Z,1.40
2019-04-01T05:29:04.317Z,1.40
2019-04-01T05:31:35.678Z,1.40
2019-04-01T05:34:05.059Z,1.40
2019-04-01T05:36:33.920Z,1.40
2019-04-01T05:39:02.456Z,1.40
2019-04-01T05:41:32.101Z,1.40
2019-04-01T05:44:02.391Z,1.50
2019-04-01T05:46:31.478Z,1.40
2019-04-01T05:49:00.031Z,1.50
2019-04-01T05:51:28.971Z,1.50
2019-04-01T05:53:57.559Z,1.50
2019-04-01T05:56:26.176Z,1.50
2019-04-01T05:58:54.700Z,1.60
2019-04-01T06:01:25.036Z,1.70
2019-04-01T06:03:53.521Z,1.70
2019-04-01T06:06:21.984Z,1.70
2019-04-01T06:08:50.468Z,1.70
2019-04-01T06:11:19.132Z,1.80
2019-04-01T06:13:47.672Z,1.80
2019-04-01T06:16:16.378Z,1.90
2019-04-01T06:18:44.924Z,1.90
2019-04-01T06:21:14.524Z,2.00
2019-04-01T06:23:43.375Z,2.00
2019-04-01T06:26:11.991Z,2.10
2019-04-01T06:28:40.598Z,2.10
2019-04-01T06:31:09.519Z,2.20
2019-04-01T06:33:39.744Z,2.20
2019-04-01T06:36:08.193Z,2.30
2019-04-01T06:38:36.828Z,2.40
2019-04-01T06:41:10.607Z,2.50
2019-04-01T06:43:39.156Z,2.50
2019-04-01T06:46:09.492Z,2.60
2019-04-01T06:48:39.148Z,2.60
2019-04-01T06:51:07.862Z,2.60
2019-04-01T06:53:36.408Z,2.70
2019-04-01T06:56:05.125Z,2.80
2019-04-01T06:58:33.581Z,2.80
2019-04-01T07:01:02.214Z,2.90
2019-04-01T07:03:35.212Z,3.00
2019-04-01T07:06:04.762Z,3.10
2019-04-01T07:08:33.483Z,3.20
2019-04-01T07:11:02.558Z,3.20
2019-04-01T07:13:31.342Z,3.40
2019-04-01T07:16:14.319Z,3.40
2019-04-01T07:18:30.199Z,3.50
2019-04-01T07:20:59.205Z,3.60
2019-04-01T07:23:29.294Z,3.70
2019-04-01T07:25:57.981Z,3.80
2019-04-01T07:28:26.600Z,3.90
2019-04-01T07:30:55.542Z,4.00
2019-04-01T07:33:26.198Z,4.10
2019-04-01T07:35:54.718Z,4.10
2019-04-01T07:38:27.005Z,4.20
2019-04-01T07:40:58.993Z,4.30
2019-04-01T07:43:27.551Z,4.40
2019-04-01T07:45:59.910Z,4.40
2019-04-01T07:48:26.346Z,4.50
2019-04-01T07:50:54.794Z,4.60
2019-04-01T07:53:23.812Z,4.70
2019-04-01T07:55:55.168Z,4.80
2019-04-01T07:58:23.764Z,4.90
2019-04-01T08:00:52.222Z,5.00
2019-04-01T08:03:20.761Z,5.10
2019-04-01T08:05:54.555Z,5.20
2019-04-01T08:08:23.002Z,5.30
2019-04-01T08:10:51.491Z,5.40
2019-04-01T08:13:20.013Z,5.50
2019-04-01T08:15:49.129Z,5.60
2019-04-01T08:18:19.231Z,5.60
2019-04-01T08:20:47.821Z,5.70
2019-04-01T08:23:21.281Z,5.80
2019-04-01T08:25:51.156Z,5.90
2019-04-01T08:28:23.646Z,6.00
2019-04-01T08:30:51.329Z,6.10
2019-04-01T08:33:19.872Z,6.20
2019-04-01T08:35:48.384Z,6.30
2019-04-01T08:38:17.514Z,6.40
2019-04-01T08:40:47.454Z,6.50
2019-04-01T08:43:15.910Z,6.60
2019-04-01T08:45:46.497Z,6.70
2019-04-01T08:48:15.021Z,6.80
2019-04-01T08:50:47.223Z,6.80
2019-04-01T08:53:16.727Z,6.90
2019-04-01T08:55:46.930Z,7.00
2019-04-01T08:58:15.367Z,7.00
2019-04-01T09:00:44.072Z,7.20
2019-04-01T09:03:12.563Z,7.40
2019-04-01T09:05:41.041Z,7.50
2019-04-01T09:08:09.638Z,7.70
2019-04-01T09:10:40.571Z,7.80
2019-04-01T09:13:09.682Z,7.90
2019-04-01T09:15:38.675Z,8.00
2019-04-01T09:18:07.124Z,8.10
2019-04-01T09:20:35.943Z,8.20
2019-04-01T09:23:04.753Z,8.30
2019-04-01T09:25:33.276Z,8.40
2019-04-01T09:28:01.753Z,8.50
2019-04-01T09:30:30.427Z,8.50
2019-04-01T09:33:00.419Z,8.70
2019-04-01T09:35:29.008Z,8.80
2019-04-01T09:38:04.041Z,8.90
2019-04-01T09:40:32.584Z,9.00
2019-04-01T09:43:01.040Z,9.10
2019-04-01T09:45:29.512Z,9.20
2019-04-01T09:47:57.994Z,9.30
2019-04-01T09:50:26.582Z,9.40
2019-04-01T09:52:55.116Z,9.50
2019-04-01T09:55:24.134Z,9.60
2019-04-01T09:57:58.380Z,9.70
2019-04-01T10:00:27.111Z,9.80
2019-04-01T10:02:55.717Z,9.90
2019-04-01T10:05:25.403Z,10.00
2019-04-01T10:07:53.879Z,10.10
2019-04-01T10:10:22.593Z,10.20
2019-04-01T10:12:51.308Z,10.30
2019-04-01T10:15:20.167Z,10.40
2019-04-01T10:17:48.753Z,10.50
2019-04-01T10:20:17.676Z,10.50
2019-04-01T10:22:46.177Z,10.70
2019-04-01T10:25:14.955Z,10.90
2019-04-01T10:27:43.440Z,11.00
2019-04-01T10:30:12.930Z,11.10
2019-04-01T10:32:42.483Z,11.30
2019-04-01T10:35:11.501Z,11.30
2019-04-01T10:37:39.976Z,11.40
2019-04-01T10:40:10.302Z,11.50
2019-04-01T10:42:38.794Z,11.60
2019-04-01T10:45:10.069Z,11.70
2019-04-01T10:47:38.691Z,11.80
2019-04-01T10:50:11.493Z,11.90
2019-04-01T10:52:43.794Z,12.00
2019-04-01T10:55:11.843Z,12.10
2019-04-01T10:57:43.336Z,12.20
2019-04-01T11:00:11.682Z,12.20
2019-04-01T11:02:40.611Z,12.30
2019-04-01T11:05:09.329Z,12.30
2019-04-01T11:07:39.183Z,12.40
2019-04-01T11:10:11.467Z,12.40
2019-04-01T11:12:39.323Z,12.60
2019-04-01T11:15:08.724Z,12.70
2019-04-01T11:17:38.891Z,12.80
2019-04-01T11:20:08.637Z,12.80
2019-04-01T11:22:37.186Z,12.80
2019-04-01T11:25:10.271Z,12.90
2019-04-01T11:27:40.239Z,13.00
2019-04-01T11:30:13.542Z,13.00
2019-04-01T11:32:40.446Z,13.10
2019-04-01T11:35:09.361Z,13.10
2019-04-01T11:37:38.189Z,13.20
2019-04-01T11:40:11.425Z,13.30
2019-04-01T11:42:40.830Z,13.40
2019-04-01T11:45:11.273Z,13.50
2019-04-01T11:47:42.383Z,13.60
2019-04-01T11:50:13.092Z,13.70
2019-04-01T11:52:43.243Z,13.90
2019-04-01T11:55:13.189Z,14.00
2019-04-01T11:57:41.668Z,14.10
2019-04-01T12:00:16.810Z,14.20
2019-04-01T12:02:48.087Z,14.20
2019-04-01T12:05:17.904Z,14.20
2019-04-01T12:07:50.465Z,14.20
2019-04-01T12:10:20.578Z,14.30
2019-04-01T12:12:53.669Z,14.30
2019-04-01T12:15:22.155Z,14.40
2019-04-01T12:17:51.178Z,14.40
2019-04-01T12:20:19.752Z,14.50
2019-04-01T12:22:49.834Z,14.50
2019-04-01T12:25:18.382Z,14.60
2019-04-01T12:27:47.400Z,14.60
2019-04-01T12:30:20.733Z,14.60
2019-04-01T12:32:49.747Z,14.70
2019-04-01T12:35:19.297Z,14.80
2019-04-01T12:37:49.661Z,14.90
2019-04-01T12:40:18.342Z,15.00
2019-04-01T12:42:50.607Z,15.00
2019-04-01T12:45:17.400Z,15.00
2019-04-01T12:47:45.981Z,15.00
2019-04-01T12:50:14.798Z,15.00
2019-04-01T12:52:43.275Z,15.10
2019-04-01T12:55:15.225Z,15.20
2019-04-01T12:57:43.838Z,15.30
2019-04-01T13:00:15.036Z,15.40
2019-04-01T13:02:45.766Z,15.40
2019-04-01T13:05:14.672Z,15.50
2019-04-01T13:07:45.672Z,15.70
2019-04-01T13:10:14.310Z,15.70
2019-04-01T13:12:44.453Z,15.80
2019-04-01T13:15:13.302Z,15.90
2019-04-01T13:17:45.571Z,15.90
2019-04-01T13:20:16.340Z,16.00
2019-04-01T13:22:47.684Z,16.00
2019-04-01T13:25:16.206Z,16.10
2019-04-01T13:27:44.694Z,16.20
2019-04-01T13:30:13.395Z,16.30
2019-04-01T13:32:41.923Z,16.40
2019-04-01T13:35:10.469Z,16.50
2019-04-01T13:37:38.925Z,16.60
2019-04-01T13:40:08.993Z,16.70
2019-04-01T13:42:39.879Z,16.70
2019-04-01T13:45:11.333Z,16.70
2019-04-01T13:47:41.385Z,16.80
2019-04-01T13:50:16.384Z,16.80
2019-04-01T13:52:45.571Z,16.90
2019-04-01T13:55:15.482Z,16.80
2019-04-01T13:57:44.077Z,16.80
2019-04-01T14:00:12.976Z,16.90
2019-04-01T14:02:41.909Z,16.90
2019-04-01T14:05:12.550Z,17.00
2019-04-01T14:07:40.993Z,17.10
2019-04-01T14:10:10.507Z,17.30
2019-04-01T14:12:42.361Z,17.50
2019-04-01T14:15:11.148Z,17.80
2019-04-01T14:17:39.650Z,18.20
2019-04-01T14:20:10.631Z,18.50
2019-04-01T14:22:40.238Z,19.10
2019-04-01T14:25:10.076Z,19.60
2019-04-01T14:27:39.510Z,19.90
2019-04-01T14:30:08.900Z,20.10
2019-04-01T14:32:37.363Z,20.30
2019-04-01T14:35:07.315Z,20.50
2019-04-01T14:37:35.844Z,20.80
2019-04-01T14:40:07.745Z,21.20
2019-04-01T14:42:37.472Z,21.40
2019-04-01T14:45:07.992Z,21.60
2019-04-01T14:47:36.463Z,21.90
2019-04-01T14:50:07.810Z,22.30
2019-04-01T14:52:36.781Z,22.70
2019-04-01T14:55:05.987Z,23.20
2019-04-01T14:57:34.817Z,23.40
2019-04-01T15:00:05.094Z,23.70
2019-04-01T15:02:33.543Z,24.00
2019-04-01T15:05:04.711Z,24.10
2019-04-01T15:07:32.299Z,24.30
2019-04-01T15:10:01.342Z,24.50
2019-04-01T15:12:29.885Z,24.60
2019-04-01T15:14:58.380Z,24.80
2019-04-01T15:17:26.842Z,25.00
2019-04-01T15:19:55.973Z,25.10
2019-04-01T15:22:47.089Z,25.30
2019-04-01T15:25:18.312Z,25.60
2019-04-01T15:27:48.105Z,25.80
2019-04-01T15:30:19.814Z,25.90
2019-04-01T15:32:48.287Z,26.10
2019-04-01T15:35:16.755Z,26.30
2019-04-01T15:37:48.689Z,26.40
2019-04-01T15:40:18.273Z,26.80
2019-04-01T15:42:47.356Z,27.00
2019-04-01T15:45:15.787Z,27.20
2019-04-01T15:47:44.640Z,27.40
2019-04-01T15:50:27.930Z,27.30
2019-04-01T15:52:48.955Z,27.20
2019-04-01T15:55:17.515Z,27.40
2019-04-01T15:57:47.956Z,27.60
2019-04-01T16:00:19.663Z,27.50
2019-04-01T16:02:48.246Z,27.40
2019-04-01T16:05:16.744Z,27.20
2019-04-01T16:07:45.227Z,27.20
2019-04-01T16:10:14.174Z,27.40
2019-04-01T16:12:42.649Z,27.50
2019-04-01T16:15:11.353Z,27.40
2019-04-01T16:17:41.540Z,27.70
2019-04-01T16:20:10.907Z,28.00
2019-04-01T16:22:39.442Z,28.10
2019-04-01T16:25:08.546Z,28.30
2019-04-01T16:27:37.127Z,28.40
2019-04-01T16:30:08.325Z,28.40
2019-04-01T16:32:37.054Z,28.40
2019-04-01T16:35:07.571Z,28.20
2019-04-01T16:37:36.102Z,28.10
2019-04-01T16:40:06.770Z,28.00
2019-04-01T16:42:35.315Z,27.90
2019-04-01T16:45:07.093Z,27.80
2019-04-01T16:47:35.593Z,27.80
2019-04-01T16:50:07.482Z,27.60
2019-04-01T16:52:36.763Z,27.50
2019-04-01T16:55:10.318Z,27.20
2019-04-01T16:57:43.626Z,26.80
2019-04-01T17:00:14.823Z,26.80
2019-04-01T17:02:43.441Z,26.60
2019-04-01T17:05:12.244Z,26.50
2019-04-01T17:07:41.171Z,26.30
2019-04-01T17:10:12.555Z,26.10
2019-04-01T17:12:41.136Z,25.90
2019-04-01T17:15:10.493Z,25.70
2019-04-01T17:17:40.554Z,25.40
2019-04-01T17:20:09.156Z,25.00
2019-04-01T17:22:37.627Z,24.60
2019-04-01T17:25:07.697Z,24.30
2019-04-01T17:27:36.378Z,24.00
2019-04-01T17:30:08.013Z,23.40
2019-04-01T17:32:36.525Z,22.90
2019-04-01T17:35:06.127Z,22.20
2019-04-01T17:37:34.663Z,21.80
2019-04-01T17:40:03.855Z,21.30
2019-04-01T17:42:32.332Z,20.90
2019-04-01T17:45:13.764Z,20.60
2019-04-01T17:47:42.354Z,20.20
2019-04-01T17:50:11.751Z,19.80
2019-04-01T17:52:41.471Z,19.30
2019-04-01T17:55:10.265Z,18.90
2019-04-01T17:57:39.798Z,18.40
2019-04-01T18:00:16.882Z,17.90
2019-04-01T18:02:45.354Z,17.50
2019-04-01T18:05:17.384Z,17.00
2019-04-01T18:07:45.976Z,16.60
2019-04-01T18:10:15.199Z,16.20
2019-04-01T18:12:46.851Z,15.80
2019-04-01T18:15:20.713Z,15.60
2019-04-01T18:17:49.345Z,15.30
2019-04-01T18:20:20.206Z,15.00
2019-04-01T18:22:49.785Z,14.80
2019-04-01T18:25:19.108Z,14.60
2019-04-01T18:27:47.706Z,14.40
2019-04-01T18:30:16.930Z,14.30
2019-04-01T18:32:45.400Z,14.10
2019-04-01T18:35:14.136Z,13.90
2019-04-01T18:37:42.724Z,13.70
2019-04-01T18:40:11.865Z,13.60
2019-04-01T18:42:43.162Z,13.50
2019-04-01T18:45:13.235Z,13.30
2019-04-01T18:47:41.719Z,13.20
2019-04-01T18:50:10.409Z,13.10
2019-04-01T18:52:38.882Z,13.00
2019-04-01T18:55:08.076Z,13.00
2019-04-01T18:57:36.819Z,12.80
2019-04-01T19:00:10.025Z,12.70
2019-04-01T19:02:38.490Z,12.60
2019-04-01T19:05:07.169Z,12.50
2019-04-01T19:07:35.997Z,12.50
2019-04-01T19:10:07.107Z,12.40
2019-04-01T19:12:36.130Z,12.30
2019-04-01T19:15:09.938Z,12.20
2019-04-01T19:17:38.413Z,12.10
2019-04-01T19:20:11.186Z,12.10
2019-04-01T19:22:40.305Z,12.00
2019-04-01T19:25:08.870Z,11.90
2019-04-01T19:27:37.405Z,11.80
2019-04-01T19:30:11.662Z,11.80
2019-04-01T19:32:39.886Z,11.70
2019-04-01T19:35:09.505Z,11.60
2019-04-01T19:37:38.838Z,11.60
2019-04-01T19:40:10.580Z,11.50
2019-04-01T19:42:42.285Z,11.40
2019-04-01T19:45:12.795Z,11.40
2019-04-01T19:47:41.429Z,11.30
2019-04-01T19:50:10.734Z,11.30
2019-04-01T19:52:39.240Z,11.20
2019-04-01T19:55:08.536Z,11.20
2019-04-01T19:57:37.007Z,11.10
2019-04-01T20:00:07.353Z,11.10
2019-04-01T20:02:35.901Z,11.00
2019-04-01T20:05:08.963Z,10.90
2019-04-01T20:07:38.444Z,10.90
2019-04-01T20:10:09.880Z,10.80
2019-04-01T20:12:40.258Z,10.70
2019-04-01T20:15:12.751Z,10.70
2019-04-01T20:17:41.442Z,10.70
2019-04-01T20:20:10.459Z,10.60
2019-04-01T20:22:38.977Z,10.50
2019-04-01T20:25:08.748Z,10.50
2019-04-01T20:27:37.207Z,10.40
2019-04-01T20:30:09.379Z,10.40
2019-04-01T20:32:39.250Z,10.40
2019-04-01T20:35:22.824Z,10.30
2019-04-01T20:37:41.010Z,10.30
2019-04-01T20:40:10.224Z,10.30
2019-04-01T20:42:38.787Z,10.20
2019-04-01T20:45:13.486Z,10.20
2019-04-01T20:47:41.781Z,10.10
2019-04-01T20:50:13.391Z,10.10
2019-04-01T20:52:41.923Z,10.00
2019-04-01T20:55:13.447Z,9.90
2019-04-01T20:57:42.580Z,9.90
2019-04-01T21:00:11.310Z,9.90
2019-04-01T21:02:39.801Z,9.80
2019-04-01T21:05:09.542Z,9.80
2019-04-01T21:07:39.580Z,9.70
2019-04-01T21:10:08.683Z,9.70
2019-04-01T21:12:37.601Z,9.60
2019-04-01T21:15:08.021Z,9.60
2019-04-01T21:17:41.455Z,9.60
2019-04-01T21:20:09.686Z,9.50
2019-04-01T21:22:40.087Z,9.50
2019-04-01T21:25:09.565Z,9.40
2019-04-01T21:27:39.327Z,9.40
2019-04-01T21:30:11.768Z,9.30
2019-04-01T21:32:40.306Z,9.20
2019-04-01T21:35:09.622Z,9.10
2019-04-01T21:37:38.442Z,9.00
2019-04-01T21:40:08.900Z,8.80
2019-04-01T21:42:37.441Z,8.60
2019-04-01T21:45:07.456Z,8.50
2019-04-01T21:47:35.910Z,8.40
2019-04-01T21:50:06.966Z,8.30
2019-04-01T21:52:35.814Z,8.20
2019-04-01T21:55:08.042Z,8.10
2019-04-01T21:57:37.864Z,8.00
2019-04-01T22:00:11.600Z,7.90
2019-04-01T22:02:40.384Z,7.80
2019-04-01T22:05:10.094Z,7.80
2019-04-01T22:07:39.242Z,7.70
2019-04-01T22:10:07.787Z,7.70
2019-04-01T22:12:36.372Z,7.60
2019-04-01T22:15:05.903Z,7.60
2019-04-01T22:17:34.434Z,7.50
2019-04-01T22:20:03.835Z,7.50
2019-04-01T22:22:32.397Z,7.50
2019-04-01T22:25:01.268Z,7.50
2019-04-01T22:27:31.534Z,7.50
2019-04-01T22:30:00.071Z,7.50
2019-04-01T22:32:29.381Z,7.60
2019-04-01T22:34:57.827Z,7.60
2019-04-01T22:37:27.909Z,7.60
2019-04-01T22:39:56.806Z,7.60
2019-04-01T22:42:27.246Z,7.70
2019-04-01T22:44:56.227Z,7.70
2019-04-01T22:47:25.771Z,7.70
2019-04-01T22:49:54.269Z,7.70
2019-04-01T22:52:24.533Z,7.80
2019-04-01T22:54:53.043Z,7.80
2019-04-01T22:57:22.171Z,7.80
2019-04-01T22:59:53.158Z,7.80
2019-04-01T23:02:22.114Z,7.80
2019-04-01T23:04:52.869Z,7.80
2019-04-01T23:07:23.927Z,7.80
2019-04-01T23:09:52.414Z,7.80
2019-04-01T23:12:22.154Z,7.80
2019-04-01T23:14:50.927Z,7.80
2019-04-01T23:17:21.486Z,7.80
2019-04-01T23:19:50.267Z,7.80
2019-04-01T23:22:18.858Z,7.80
2019-04-01T23:24:47.345Z,7.70
2019-04-01T23:27:15.796Z,7.70
2019-04-01T23:29:44.295Z,7.70
2019-04-01T23:32:12.947Z,7.70
2019-04-01T23:34:42.358Z,7.60
2019-04-01T23:37:11.686Z,7.60
2019-04-01T23:39:41.507Z,7.60
2019-04-01T23:42:10.092Z,7.60
2019-04-01T23:44:38.535Z,7.60
2019-04-01T23:47:06.984Z,7.50
2019-04-01T23:49:35.452Z,7.50
2019-04-01T23:52:05.463Z,7.60
2019-04-01T23:54:36.218Z,7.50
2019-04-01T23:57:09.095Z,7.50
2019-04-01T23:59:41.841Z,7.50
